createdAt,value
2022-11-02T00:00:40.948Z,101170.28
2022-11-02T00:03:11.603Z,101174.16
2022-11-02T00:05:41.961Z,101182.13
2022-11-02T00:08:12.356Z,101188.16
2022-11-02T00:10:42.616Z,101183.47
2022-11-02T00:13:12.622Z,101179.38
2022-11-02T00:15:42.746Z,101190.91
2022-11-02T00:18:15.324Z,101190.50
2022-11-02T00:20:46.163Z,101193.59
2022-11-02T00:23:18.317Z,101191.13
2022-11-02T00:25:51.350Z,101207.56
2022-11-02T00:28:21.762Z,101214.13
2022-11-02T00:30:52.030Z,101210.03
2022-11-02T00:33:22.634Z,101233.41
2022-11-02T00:35:52.952Z,101225.66
2022-11-02T00:38:23.266Z,101231.78
2022-11-02T00:40:54.242Z,101227.09
2022-11-02T00:43:24.565Z,101241.59
2022-11-02T00:45:54.647Z,101236.97
2022-11-02T00:48:25.405Z,101239.25
2022-11-02T00:50:56.588Z,101250.16
2022-11-02T00:53:30.577Z,101247.41
2022-11-02T00:56:00.861Z,101245.25
2022-11-02T00:58:31.685Z,101262.03
2022-11-02T01:01:07.810Z,101253.53
2022-11-02T01:03:39.076Z,101259.56
2022-11-02T01:06:15.023Z,101264.53
2022-11-02T01:08:45.665Z,101275.28
2022-11-02T01:11:18.795Z,101267.03
2022-11-02T01:13:50.200Z,101271.69
2022-11-02T01:16:21.675Z,101271.41
2022-11-02T01:18:57.109Z,101279.38
2022-11-02T01:21:27.650Z,101281.84
2022-11-02T01:23:58.812Z,101282.66
2022-11-02T01:26:28.991Z,101288.69
2022-11-02T01:28:59.349Z,101292.25
2022-11-02T01:31:29.617Z,101299.72
2022-11-02T01:33:59.849Z,101296.94
2022-11-02T01:36:30.319Z,101298.88
2022-11-02T01:39:00.612Z,101311.53
2022-11-02T01:41:30.847Z,101314.00
2022-11-02T01:44:05.285Z,101312.06
2022-11-02T01:46:44.671Z,101309.81
2022-11-02T01:49:22.261Z,101313.09
2022-11-02T01:51:59.933Z,101314.53
2022-11-02T01:54:33.651Z,101318.63
2022-11-02T01:57:09.110Z,101325.25
2022-11-02T01:59:49.022Z,101327.22
2022-11-02T02:02:30.507Z,101326.56
2022-11-02T02:05:09.061Z,101339.25
2022-11-02T02:07:41.410Z,101327.94
2022-11-02T02:10:12.208Z,101332.63
2022-11-02T02:12:44.212Z,101332.63
2022-11-02T02:15:18.744Z,101337.00
2022-11-02T02:17:58.868Z,101337.53
2022-11-02T02:20:34.855Z,101339.16
2022-11-02T02:23:14.085Z,101333.66
2022-11-02T02:25:53.583Z,101332.53
2022-11-02T02:28:51.631Z,101330.59
2022-11-02T02:31:39.522Z,101335.81
2022-11-02T02:34:18.714Z,101329.97
2022-11-02T02:37:10.032Z,101333.28
2022-11-02T02:39:49.462Z,101332.16
2022-11-02T02:42:26.315Z,101336.88
2022-11-02T02:45:07.680Z,101340.13
2022-11-02T02:47:41.289Z,101330.22
2022-11-02T02:50:25.691Z,101329.09
2022-11-02T02:52:57.889Z,101326.84
2022-11-02T02:55:32.069Z,101325.75
2022-11-02T02:58:06.205Z,101325.22
2022-11-02T03:00:38.468Z,101319.41
2022-11-02T03:03:09.064Z,101322.97
2022-11-02T03:05:41.436Z,101322.69
2022-11-02T03:08:19.661Z,101327.91
2022-11-02T03:11:18.176Z,101321.56
2022-11-02T03:14:08.522Z,101324.31
2022-11-02T03:16:47.212Z,101316.84
2022-11-02T03:19:44.973Z,101313.78
2022-11-02T03:22:40.419Z,101305.81
2022-11-02T03:25:17.947Z,101305.22
2022-11-02T03:27:50.858Z,101303.59
2022-11-02T03:30:24.727Z,101290.81
2022-11-02T03:33:11.929Z,101283.97
2022-11-02T03:41:48.742Z,101264.88
2022-11-02T03:44:26.226Z,101258.19
2022-11-02T03:53:27.449Z,101237.47
2022-11-02T03:56:04.961Z,101242.69
2022-11-02T03:58:53.810Z,101231.63
2022-11-02T04:01:24.732Z,101231.84
2022-11-02T04:03:55.473Z,101221.63
2022-11-02T04:06:27.772Z,101221.94
2022-11-02T04:08:58.208Z,101216.63
2022-11-02T04:11:47.309Z,101210.28
2022-11-02T04:14:36.053Z,101210.28
2022-11-02T04:17:42.659Z,101196.19
2022-11-02T04:23:21.058Z,101192.81
2022-11-02T04:25:56.832Z,101180.13
2022-11-02T04:28:45.282Z,101178.19
2022-11-02T04:31:16.255Z,101177.38
2022-11-02T04:33:46.723Z,101166.03
2022-11-02T04:36:19.555Z,101170.75
2022-11-02T04:38:55.532Z,101157.75
2022-11-02T04:41:43.906Z,101152.72
2022-11-02T04:44:32.113Z,101148.84
2022-11-02T04:49:52.417Z,101150.47
2022-11-02T04:52:22.981Z,101129.22
2022-11-02T04:54:54.675Z,101125.66
2022-11-02T04:57:25.076Z,101111.84
2022-11-02T04:59:57.290Z,101103.25
2022-11-02T05:02:27.791Z,101097.72
2022-11-02T05:04:58.979Z,101094.66
2022-11-02T05:07:29.359Z,101082.81
2022-11-02T05:13:04.386Z,101067.88
2022-11-02T05:15:53.574Z,101064.00
2022-11-02T05:18:24.065Z,101056.84
2022-11-02T05:20:56.265Z,101059.28
2022-11-02T05:23:29.615Z,101047.94
2022-11-02T05:28:53.479Z,101040.16
2022-11-02T05:31:24.281Z,101037.69
2022-11-02T05:33:55.382Z,101019.72
2022-11-02T05:36:26.321Z,101018.09
2022-11-02T05:38:57.843Z,101010.09
2022-11-02T05:41:29.336Z,101004.78
2022-11-02T05:44:01.921Z,100999.88
2022-11-02T05:46:50.270Z,101004.28
2022-11-02T05:49:20.857Z,100994.66
2022-11-02T05:51:51.460Z,100993.53
2022-11-02T05:54:21.934Z,100982.19
2022-11-02T05:57:10.516Z,100977.47
2022-11-02T05:59:42.711Z,100976.69
2022-11-02T06:02:33.484Z,100969.53
2022-11-02T06:07:49.304Z,100955.09
2022-11-02T06:10:20.493Z,100953.47
2022-11-02T06:12:58.267Z,100945.19
2022-11-02T06:15:46.890Z,100942.91
2022-11-02T06:18:16.993Z,100933.03
2022-11-02T06:20:46.978Z,100941.78
2022-11-02T06:23:20.319Z,100920.81
2022-11-02T06:25:58.966Z,100916.13
2022-11-02T06:28:47.145Z,100911.25
2022-11-02T06:31:19.552Z,100905.44
2022-11-02T06:33:49.838Z,100902.66
2022-11-02T06:36:20.075Z,100896.81
2022-11-02T06:38:50.099Z,100887.72
2022-11-02T06:41:20.285Z,100886.09
2022-11-02T06:43:50.441Z,100868.72
2022-11-02T06:46:20.484Z,100863.19
2022-11-02T06:48:50.866Z,100865.31
2022-11-02T06:51:20.990Z,100862.56
2022-11-02T06:53:51.506Z,100849.56
2022-11-02T06:56:21.823Z,100848.13
2022-11-02T06:58:51.860Z,100842.13
2022-11-02T07:01:22.305Z,100842.13
2022-11-02T07:03:52.632Z,100834.63
2022-11-02T07:06:22.848Z,100829.94
2022-11-02T07:08:52.884Z,100821.34
2022-11-02T07:11:23.233Z,100823.28
2022-11-02T07:14:11.530Z,100816.16
2022-11-02T07:19:51.631Z,100809.66
2022-11-02T07:22:21.856Z,100808.81
2022-11-02T07:24:51.890Z,100796.50
2022-11-02T07:27:22.908Z,100790.66
2022-11-02T07:29:53.145Z,100794.22
2022-11-02T07:32:23.189Z,100788.72
2022-11-02T07:34:53.354Z,100784.81
2022-11-02T07:37:42.310Z,100788.72
2022-11-02T07:40:14.409Z,100776.03
2022-11-02T07:43:03.351Z,100777.34
2022-11-02T07:45:52.111Z,100777.66
2022-11-02T07:48:22.516Z,100775.41
2022-11-02T07:50:52.784Z,100772.34
2022-11-02T07:53:41.173Z,100759.97
2022-11-02T07:56:12.175Z,100764.38
2022-11-02T07:59:00.678Z,100754.97
2022-11-02T08:01:49.243Z,100758.84
2022-11-02T08:04:40.765Z,100753.31
2022-11-02T08:07:14.759Z,100758.84
2022-11-02T08:10:02.996Z,100754.44
2022-11-02T08:12:51.668Z,100748.63
2022-11-02T08:15:21.881Z,100745.56
2022-11-02T08:18:06.686Z,100740.84
2022-11-02T08:20:57.298Z,100741.66
2022-11-02T08:23:28.796Z,100740.03
2022-11-02T08:26:17.398Z,100738.56
2022-11-02T08:28:47.889Z,100739.41
2022-11-02T08:31:20.119Z,100743.31
2022-11-02T08:33:50.384Z,100733.41
2022-11-02T08:36:20.459Z,100741.34
2022-11-02T08:38:50.565Z,100734.69
2022-11-02T08:41:20.668Z,100733.88
2022-11-02T08:43:50.676Z,100739.41
2022-11-02T08:46:20.702Z,100742.97
2022-11-02T08:48:50.718Z,100733.88
2022-11-02T08:51:20.779Z,100733.41
2022-11-02T08:53:51.964Z,100729.66
2022-11-02T08:56:22.674Z,100728.38
2022-11-02T08:58:52.894Z,100732.41
2022-11-02T09:01:23.212Z,100733.22
2022-11-02T09:03:53.287Z,100733.56
2022-11-02T09:06:23.533Z,100732.41
2022-11-02T09:08:56.379Z,100731.59
2022-11-02T09:11:29.200Z,100734.84
2022-11-02T09:13:59.456Z,100732.41
2022-11-02T09:16:29.699Z,100730.47
2022-11-02T09:18:59.862Z,100728.19
2022-11-02T09:21:30.011Z,100731.28
2022-11-02T09:24:00.025Z,100717.00
2022-11-02T09:26:30.791Z,100728.53
2022-11-02T09:29:03.881Z,100719.75
2022-11-02T09:31:34.120Z,100720.09
2022-11-02T09:34:04.596Z,100711.81
2022-11-02T09:36:34.851Z,100717.78
2022-11-02T09:39:04.886Z,100719.41
2022-11-02T09:41:40.943Z,100711.13
2022-11-02T09:44:17.524Z,100712.75
2022-11-02T09:47:17.721Z,100723.81
2022-11-02T09:49:40.485Z,100723.16
2022-11-02T09:52:18.383Z,100717.16
2022-11-02T09:54:54.575Z,100724.63
2022-11-02T09:57:32.762Z,100719.09
2022-11-02T10:00:02.938Z,100728.19
2022-11-02T10:02:59.169Z,100733.72
2022-11-02T10:06:05.951Z,100726.56
2022-11-02T10:08:59.552Z,100727.41
2022-11-02T10:11:54.825Z,100734.84
2022-11-02T10:14:36.157Z,100727.69
2022-11-02T10:17:21.128Z,100737.09
2022-11-02T10:19:59.238Z,100733.22
2022-11-02T10:22:38.044Z,100736.31
2022-11-02T10:25:10.002Z,100739.22
2022-11-02T10:27:41.861Z,100738.09
2022-11-02T10:30:20.669Z,100750.28
2022-11-02T10:32:58.400Z,100753.03
2022-11-02T10:36:19.496Z,100748.66
2022-11-02T10:39:19.228Z,100760.19
2022-11-02T10:42:13.499Z,100758.56
2022-11-02T10:45:25.426Z,100765.41
2022-11-02T10:48:09.312Z,100760.53
2022-11-02T10:50:39.465Z,100766.03
2022-11-02T10:56:23.953Z,100758.06
2022-11-02T10:59:11.666Z,100766.34
2022-11-02T11:01:49.760Z,100766.84
2022-11-02T11:04:34.131Z,100770.72
2022-11-02T11:07:14.377Z,100766.69
2022-11-02T11:09:47.547Z,100777.09
2022-11-02T11:12:24.752Z,100778.22
2022-11-02T11:20:48.258Z,100801.59
2022-11-02T11:23:32.729Z,100805.19
2022-11-02T11:26:26.196Z,100817.03
2022-11-02T11:28:58.757Z,100810.38
2022-11-02T11:31:29.046Z,100820.94
2022-11-02T11:34:04.045Z,100812.34
2022-11-02T11:36:37.599Z,100816.22
2022-11-02T11:39:24.925Z,100814.28
2022-11-02T11:41:55.346Z,100819.78
2022-11-02T11:44:25.920Z,100824.19
2022-11-02T11:47:05.603Z,100825.81
2022-11-02T11:50:07.627Z,100828.56
2022-11-02T11:52:33.046Z,100834.59
2022-11-02T11:55:21.373Z,100838.78
2022-11-02T11:58:18.435Z,100841.56
2022-11-02T12:00:48.739Z,100845.13
2022-11-02T12:03:19.230Z,100852.59
2022-11-02T12:06:28.922Z,100853.09
2022-11-02T12:09:14.021Z,100846.28
2022-11-02T12:12:13.370Z,100859.44
2022-11-02T12:14:56.819Z,100862.19
2022-11-02T12:17:35.323Z,100863.63
2022-11-02T12:20:32.315Z,100866.41
2022-11-02T12:23:24.865Z,100870.78
2022-11-02T12:26:03.237Z,100870.63
2022-11-02T12:29:13.052Z,100871.44
2022-11-02T12:31:47.777Z,100887.69
2022-11-02T12:34:30.690Z,100894.16
2022-11-02T12:37:40.019Z,100890.09
2022-11-02T12:40:38.544Z,100899.53
2022-11-02T12:44:05.260Z,100908.59
2022-11-02T12:46:55.659Z,100919.97
2022-11-02T12:49:44.396Z,100919.66
2022-11-02T12:52:22.822Z,100925.50
2022-11-02T12:55:01.610Z,100928.34
2022-11-02T12:57:40.771Z,100934.09
2022-11-02T13:00:22.643Z,100944.31
2022-11-02T13:03:07.588Z,100950.44
2022-11-02T13:05:46.970Z,100939.72
2022-11-02T13:08:23.564Z,100943.28
2022-11-02T13:11:02.895Z,100944.41
2022-11-02T13:13:44.519Z,100952.06
2022-11-02T13:16:23.430Z,100947.38
2022-11-02T13:18:58.886Z,100950.44
2022-11-02T13:21:44.438Z,100956.50
2022-11-02T13:24:25.089Z,100955.97
2022-11-02T13:27:14.180Z,100959.25
2022-11-02T13:29:58.871Z,100959.53
2022-11-02T13:32:54.405Z,100973.56
2022-11-02T13:35:46.441Z,100974.16
2022-11-02T13:38:39.378Z,100975.00
2022-11-02T13:43:33.888Z,100982.69
2022-11-02T13:46:43.017Z,100998.69
2022-11-02T13:52:43.146Z,100993.09
2022-11-02T13:55:27.567Z,100995.34
2022-11-02T13:58:06.020Z,100996.50
2022-11-02T14:00:57.079Z,100996.00
2022-11-02T14:03:35.758Z,101004.28
2022-11-02T14:06:24.659Z,100998.25
2022-11-02T14:09:04.153Z,100995.78
2022-11-02T14:11:45.617Z,101008.47
2022-11-02T14:14:26.461Z,101011.06
2022-11-02T14:17:06.033Z,101003.59
2022-11-02T14:20:05.327Z,101008.28
2022-11-02T14:22:38.088Z,101011.06
2022-11-02T14:25:27.217Z,101012.50
2022-11-02T14:28:06.366Z,101009.75
2022-11-02T14:30:58.162Z,101008.28
2022-11-02T14:33:55.750Z,101006.16
2022-11-02T14:36:43.420Z,101003.91
2022-11-02T14:39:43.199Z,101009.53
2022-11-02T14:46:09.396Z,101013.63
2022-11-02T14:49:06.697Z,101010.03
2022-11-02T14:51:44.364Z,101012.16
2022-11-02T14:54:25.977Z,101015.25
2022-11-02T14:57:25.858Z,101011.38
2022-11-02T15:00:16.768Z,101009.91
2022-11-02T15:02:52.563Z,101016.25
2022-11-02T15:05:59.092Z,101018.38
2022-11-02T15:08:54.595Z,101006.84
2022-11-02T15:12:07.408Z,101009.31
2022-11-02T15:17:36.199Z,101004.28
2022-11-02T15:20:24.222Z,101009.81
2022-11-02T15:23:11.824Z,101007.56
2022-11-02T15:25:59.393Z,101003.34
2022-11-02T15:28:39.551Z,101003.00
2022-11-02T15:31:36.302Z,100998.50
2022-11-02T15:34:25.198Z,100994.31
2022-11-02T15:36:58.910Z,100994.00
2022-11-02T15:39:40.152Z,100997.56
2022-11-02T15:42:29.729Z,101007.28
2022-11-02T15:45:26.868Z,101002.81
2022-11-02T15:48:32.046Z,101007.28
2022-11-02T15:51:40.283Z,101008.94
2022-11-02T15:54:52.275Z,101015.25
2022-11-02T15:57:31.593Z,101014.25
2022-11-02T16:00:19.473Z,101017.94
2022-11-02T16:02:57.008Z,101009.66
2022-11-02T16:05:50.388Z,101006.09
2022-11-02T16:08:33.525Z,101005.25
2022-11-02T16:11:23.103Z,100994.22
2022-11-02T16:14:08.420Z,101004.28
2022-11-02T16:16:57.209Z,100997.63
2022-11-02T16:19:27.421Z,100991.63
2022-11-02T16:24:49.818Z,101004.28
2022-11-02T16:27:42.153Z,101000.19
2022-11-02T16:30:21.925Z,100997.94
2022-11-02T16:33:02.216Z,100994.66
2022-11-02T16:35:32.638Z,100993.38
2022-11-02T16:38:03.731Z,100997.75
2022-11-02T16:40:52.830Z,100999.22
2022-11-02T16:43:24.415Z,100994.50
2022-11-02T16:46:02.637Z,101003.28
2022-11-02T16:49:13.846Z,100987.34
2022-11-02T16:52:23.937Z,100990.94
2022-11-02T16:54:54.197Z,100992.56
2022-11-02T16:57:28.676Z,100989.28
2022-11-02T17:00:02.264Z,100989.59
2022-11-02T17:02:40.682Z,100990.22
2022-11-02T17:05:43.357Z,100989.09
2022-11-02T17:08:35.487Z,100988.28
2022-11-02T17:11:08.052Z,100995.44
2022-11-02T17:13:46.047Z,100996.88
2022-11-02T17:16:16.353Z,100996.06
2022-11-02T17:18:46.587Z,100989.41
2022-11-02T17:21:16.728Z,100993.28
2022-11-02T17:23:50.676Z,100985.66
2022-11-02T17:26:27.117Z,100986.66
2022-11-02T17:29:03.514Z,100982.25
2022-11-02T17:31:43.178Z,100981.94
2022-11-02T17:34:21.587Z,100982.59
2022-11-02T17:36:52.856Z,100982.06
2022-11-02T17:39:23.211Z,100977.56
2022-11-02T17:42:17.644Z,100971.56
2022-11-02T17:44:47.838Z,100968.78
2022-11-02T17:47:20.930Z,100968.78
2022-11-02T17:49:50.905Z,100966.31
2022-11-02T17:52:21.038Z,100963.06
2022-11-02T17:54:51.044Z,100973.81
2022-11-02T17:57:21.500Z,100965.53
2022-11-02T17:59:52.628Z,100972.78
2022-11-02T18:02:22.829Z,100974.41
2022-11-02T18:04:53.091Z,100973.28
2022-11-02T18:07:23.301Z,100976.84
2022-11-02T18:09:54.122Z,100968.41
2022-11-02T18:12:24.373Z,100968.41
2022-11-02T18:14:54.468Z,100958.19
2022-11-02T18:17:24.482Z,100954.09
2022-11-02T18:19:54.447Z,100954.09
2022-11-02T18:22:24.448Z,100952.97
2022-11-02T18:24:54.394Z,100945.31
2022-11-02T18:27:27.737Z,100952.47
2022-11-02T18:29:58.828Z,100947.78
2022-11-02T18:32:28.838Z,100950.03
2022-11-02T18:34:58.810Z,100946.78
2022-11-02T18:37:28.858Z,100940.44
2022-11-02T18:39:58.923Z,100947.59
2022-11-02T18:42:29.164Z,100944.34
2022-11-02T18:45:00.374Z,100942.09
2022-11-02T18:47:32.297Z,100941.56
2022-11-02T18:50:03.010Z,100944.34
2022-11-02T18:52:33.131Z,100938.81
2022-11-02T18:55:07.654Z,100941.06
2022-11-02T18:57:37.943Z,100931.97
2022-11-02T19:00:08.737Z,100929.22
2022-11-02T19:02:40.167Z,100933.59
2022-11-02T19:05:32.975Z,100935.56
2022-11-02T19:08:21.804Z,100939.13
2022-11-02T19:10:52.015Z,100932.91
2022-11-02T19:13:22.237Z,100935.38
2022-11-02T19:15:52.495Z,100932.13
2022-11-02T19:18:22.516Z,100934.53
2022-11-02T19:20:52.884Z,100936.19
2022-11-02T19:23:23.074Z,100931.28
2022-11-02T19:25:54.188Z,100939.56
2022-11-02T19:28:24.439Z,100932.91
2022-11-02T19:30:54.505Z,100926.88
2022-11-02T19:33:25.335Z,100921.88
2022-11-02T19:36:00.190Z,100924.63
2022-11-02T19:38:30.406Z,100924.13
2022-11-02T19:41:04.212Z,100925.06
2022-11-02T19:43:34.810Z,100919.56
2022-11-02T19:46:06.419Z,100923.16
2022-11-02T19:48:40.461Z,100921.53
2022-11-02T19:51:22.833Z,100922.91
2022-11-02T19:53:54.981Z,100919.88
2022-11-02T19:56:26.085Z,100927.50
2022-11-02T19:58:57.368Z,100925.91
2022-11-02T20:01:34.495Z,100925.41
2022-11-02T20:04:05.306Z,100928.97
2022-11-02T20:06:41.378Z,100925.47
2022-11-02T20:09:17.875Z,100928.25
2022-11-02T20:11:49.453Z,100919.66
2022-11-02T20:14:20.463Z,100921.09
2022-11-02T20:17:04.216Z,100926.28
2022-11-02T20:19:41.277Z,100915.06
2022-11-02T20:22:11.570Z,100920.09
2022-11-02T20:24:41.792Z,100917.84
2022-11-02T20:27:12.380Z,100928.34
2022-11-02T20:29:42.857Z,100921.09
2022-11-02T20:32:14.667Z,100921.41
2022-11-02T20:34:44.860Z,100926.94
2022-11-02T20:37:14.964Z,100927.22
2022-11-02T20:39:45.189Z,100927.22
2022-11-02T20:42:15.467Z,100928.06
2022-11-02T20:44:51.204Z,100930.59
2022-11-02T20:47:21.412Z,100935.81
2022-11-02T20:49:51.724Z,100928.69
2022-11-02T20:52:24.150Z,100929.00
2022-11-02T20:54:54.218Z,100934.69
2022-11-02T20:57:25.280Z,100928.69
2022-11-02T20:59:55.507Z,100933.69
2022-11-02T21:02:26.873Z,100936.94
2022-11-02T21:04:56.676Z,100935.81
2022-11-02T21:07:26.700Z,100931.75
2022-11-02T21:09:56.955Z,100927.03
2022-11-02T21:12:45.593Z,100936.44
2022-11-02T21:15:16.081Z,100936.44
2022-11-02T21:17:46.260Z,100938.69
2022-11-02T21:23:08.467Z,100944.53
2022-11-02T21:25:39.034Z,100946.16
2022-11-02T21:28:10.053Z,100944.72
2022-11-02T21:30:40.133Z,100946.66
2022-11-02T21:33:10.367Z,100953.00
2022-11-02T21:35:40.546Z,100946.66
2022-11-02T21:38:10.757Z,100957.69
2022-11-02T21:40:40.819Z,100956.06
2022-11-02T21:43:11.073Z,100958.31
2022-11-02T21:45:41.279Z,100964.84
2022-11-02T21:48:11.354Z,100961.38
2022-11-02T21:50:41.389Z,100968.84
2022-11-02T21:53:11.394Z,100965.47
2022-11-02T21:55:41.545Z,100979.88
2022-11-02T21:58:13.059Z,100980.38
2022-11-02T22:01:02.005Z,100979.88
2022-11-02T22:03:32.388Z,100976.28
2022-11-02T22:06:02.606Z,100990.06
2022-11-02T22:08:42.002Z,101000.81
2022-11-02T22:11:17.970Z,100993.25
2022-11-02T22:13:48.326Z,101001.41
2022-11-02T22:16:39.682Z,101000.09
2022-11-02T22:19:15.608Z,100998.16
2022-11-02T22:21:47.373Z,101010.63
2022-11-02T22:24:17.592Z,101013.66
2022-11-02T22:26:47.933Z,101019.69
2022-11-02T22:29:18.567Z,101025.53
2022-11-02T22:31:49.014Z,101021.66
2022-11-02T22:34:19.503Z,101020.81
2022-11-02T22:36:49.709Z,101026.66
2022-11-02T22:39:20.095Z,101030.72
2022-11-02T22:41:50.894Z,101036.38
2022-11-02T22:44:25.575Z,101042.25
2022-11-02T22:46:55.916Z,101050.00
2022-11-02T22:49:26.468Z,101041.03
2022-11-02T22:51:57.018Z,101049.31
2022-11-02T22:54:27.313Z,101057.59
2022-11-02T22:56:58.406Z,101061.16
2022-11-02T23:02:14.728Z,101067.44
2022-11-02T23:04:44.995Z,101075.69
2022-11-02T23:07:15.319Z,101072.53
2022-11-02T23:09:45.543Z,101079.34
2022-11-02T23:12:15.741Z,101088.97
2022-11-02T23:14:45.971Z,101091.91
2022-11-02T23:17:16.199Z,101094.47
2022-11-02T23:19:47.127Z,101096.44
2022-11-02T23:22:35.459Z,101103.25
2022-11-02T23:25:22.201Z,101106.53
2022-11-02T23:28:18.636Z,101109.00
2022-11-02T23:31:07.174Z,101113.06
2022-11-02T23:33:41.248Z,101106.25
2022-11-02T23:36:15.120Z,101111.44
2022-11-02T23:39:08.352Z,101119.78
2022-11-02T23:41:43.731Z,101121.13
2022-11-02T23:44:14.150Z,101123.25
2022-11-02T23:46:46.484Z,101121.03
2022-11-02T23:49:19.466Z,101122.97
2022-11-02T23:52:07.843Z,101135.91
2022-11-02T23:54:56.392Z,101133.78
2022-11-02T23:57:27.755Z,101142.88
2022-11-02T23:59:57.590Z,101148.38
